sensor_id;sensor_type;location;lat;lon;timestamp;temperature;humidity
7472;DHT22;3777;48.722;8.110;2023-02-27T00:00:22;0.80;99.90
7472;DHT22;3777;48.722;8.110;2023-02-27T00:02:50;0.80;99.90
7472;DHT22;3777;48.722;8.110;2023-02-27T00:05:18;0.70;99.90
7472;DHT22;3777;48.722;8.110;2023-02-27T00:07:47;0.70;99.90
7472;DHT22;3777;48.722;8.110;2023-02-27T00:10:14;0.70;99.90
7472;DHT22;3777;48.722;8.110;2023-02-27T00:12:41;0.70;99.90
7472;DHT22;3777;48.722;8.110;2023-02-27T00:15:12;0.70;99.90
7472;DHT22;3777;48.722;8.110;2023-02-27T00:17:39;0.70;99.90
7472;DHT22;3777;48.722;8.110;2023-02-27T00:20:07;0.60;99.90
7472;DHT22;3777;48.722;8.110;2023-02-27T00:22:37;0.60;99.90
7472;DHT22;3777;48.722;8.110;2023-02-27T00:25:04;0.50;99.90
7472;DHT22;3777;48.722;8.110;2023-02-27T00:27:31;0.50;99.90
7472;DHT22;3777;48.722;8.110;2023-02-27T00:29:59;0.50;99.90
7472;DHT22;3777;48.722;8.110;2023-02-27T00:32:27;0.60;99.90
7472;DHT22;3777;48.722;8.110;2023-02-27T00:34:54;0.50;99.90
7472;DHT22;3777;48.722;8.110;2023-02-27T00:37:23;0.50;99.90
7472;DHT22;3777;48.722;8.110;2023-02-27T00:39:50;0.50;99.90
7472;DHT22;3777;48.722;8.110;2023-02-27T00:42:16;0.50;99.90
7472;DHT22;3777;48.722;8.110;2023-02-27T00:44:43;0.50;99.90
7472;DHT22;3777;48.722;8.110;2023-02-27T00:47:10;0.50;99.90
7472;DHT22;3777;48.722;8.110;2023-02-27T00:49:39;0.40;99.90
7472;DHT22;3777;48.722;8.110;2023-02-27T00:52:06;0.50;99.90
7472;DHT22;3777;48.722;8.110;2023-02-27T00:54:34;0.40;99.90
7472;DHT22;3777;48.722;8.110;2023-02-27T00:57:01;0.40;99.90
7472;DHT22;3777;48.722;8.110;2023-02-27T00:59:28;0.40;99.90
7472;DHT22;3777;48.722;8.110;2023-02-27T01:01:55;0.50;99.90
7472;DHT22;3777;48.722;8.110;2023-02-27T01:04:25;0.50;99.90
7472;DHT22;3777;48.722;8.110;2023-02-27T01:06:53;0.50;99.90
7472;DHT22;3777;48.722;8.110;2023-02-27T01:09:20;0.50;99.90
7472;DHT22;3777;48.722;8.110;2023-02-27T01:11:47;0.50;99.90
7472;DHT22;3777;48.722;8.110;2023-02-27T01:14:14;0.50;99.90
7472;DHT22;3777;48.722;8.110;2023-02-27T01:16:41;0.50;99.90
7472;DHT22;3777;48.722;8.110;2023-02-27T01:19:08;0.50;99.90
7472;DHT22;3777;48.722;8.110;2023-02-27T01:21:35;0.40;99.90
7472;DHT22;3777;48.722;8.110;2023-02-27T01:24:04;0.40;99.90
7472;DHT22;3777;48.722;8.110;2023-02-27T01:26:31;0.50;99.90
7472;DHT22;3777;48.722;8.110;2023-02-27T01:28:58;0.40;99.90
7472;DHT22;3777;48.722;8.110;2023-02-27T01:31:25;0.40;99.90
7472;DHT22;3777;48.722;8.110;2023-02-27T01:33:52;0.40;99.90
7472;DHT22;3777;48.722;8.110;2023-02-27T01:36:19;0.40;99.90
7472;DHT22;3777;48.722;8.110;2023-02-27T01:38:46;0.40;99.90
7472;DHT22;3777;48.722;8.110;2023-02-27T01:41:14;0.40;99.90
7472;DHT22;3777;48.722;8.110;2023-02-27T01:43:58;0.40;99.90
7472;DHT22;3777;48.722;8.110;2023-02-27T01:46:26;0.40;99.90
7472;DHT22;3777;48.722;8.110;2023-02-27T01:48:56;0.30;99.90
7472;DHT22;3777;48.722;8.110;2023-02-27T01:51:26;0.40;99.90
7472;DHT22;3777;48.722;8.110;2023-02-27T01:53:56;0.40;99.90
7472;DHT22;3777;48.722;8.110;2023-02-27T01:56:28;0.30;99.90
7472;DHT22;3777;48.722;8.110;2023-02-27T01:58:57;0.30;99.90
7472;DHT22;3777;48.722;8.110;2023-02-27T02:01:26;0.30;99.90
7472;DHT22;3777;48.722;8.110;2023-02-27T02:03:57;0.30;99.90
7472;DHT22;3777;48.722;8.110;2023-02-27T02:06:27;0.30;99.90
7472;DHT22;3777;48.722;8.110;2023-02-27T02:08:57;0.30;99.90
7472;DHT22;3777;48.722;8.110;2023-02-27T02:11:26;0.30;99.90
7472;DHT22;3777;48.722;8.110;2023-02-27T02:13:56;0.30;99.90
7472;DHT22;3777;48.722;8.110;2023-02-27T02:16:49;0.20;99.90
7472;DHT22;3777;48.722;8.110;2023-02-27T02:23:12;0.20;99.90
7472;DHT22;3777;48.722;8.110;2023-02-27T02:26:15;0.10;99.90
7472;DHT22;3777;48.722;8.110;2023-02-27T02:32:24;0.10;99.90
7472;DHT22;3777;48.722;8.110;2023-02-27T02:40:57;0.10;99.90
7472;DHT22;3777;48.722;8.110;2023-02-27T02:43:30;0.00;99.90
7472;DHT22;3777;48.722;8.110;2023-02-27T02:46:08;0.10;99.90
7472;DHT22;3777;48.722;8.110;2023-02-27T02:48:40;0.20;99.90
7472;DHT22;3777;48.722;8.110;2023-02-27T02:51:16;0.10;99.90
7472;DHT22;3777;48.722;8.110;2023-02-27T02:53:47;0.20;99.90
7472;DHT22;3777;48.722;8.110;2023-02-27T02:56:22;0.10;99.90
7472;DHT22;3777;48.722;8.110;2023-02-27T02:58:55;0.20;99.90
7472;DHT22;3777;48.722;8.110;2023-02-27T03:01:29;0.20;99.90
7472;DHT22;3777;48.722;8.110;2023-02-27T03:04:02;0.10;99.90
7472;DHT22;3777;48.722;8.110;2023-02-27T03:06:33;0.20;99.90
7472;DHT22;3777;48.722;8.110;2023-02-27T03:09:05;0.20;99.90
7472;DHT22;3777;48.722;8.110;2023-02-27T03:11:37;0.10;99.90
7472;DHT22;3777;48.722;8.110;2023-02-27T03:14:09;0.10;99.90
7472;DHT22;3777;48.722;8.110;2023-02-27T03:16:40;0.10;99.90
7472;DHT22;3777;48.722;8.110;2023-02-27T03:19:11;0.10;99.90
7472;DHT22;3777;48.722;8.110;2023-02-27T03:21:43;0.00;99.90
7472;DHT22;3777;48.722;8.110;2023-02-27T03:24:15;0.00;99.90
7472;DHT22;3777;48.722;8.110;2023-02-27T03:26:47;0.00;99.90
7472;DHT22;3777;48.722;8.110;2023-02-27T03:29:19;0.00;99.90
7472;DHT22;3777;48.722;8.110;2023-02-27T03:31:51;0.10;99.90
7472;DHT22;3777;48.722;8.110;2023-02-27T03:34:23;0.10;99.90
7472;DHT22;3777;48.722;8.110;2023-02-27T03:36:56;0.00;99.90
7472;DHT22;3777;48.722;8.110;2023-02-27T03:39:33;0.10;99.90
7472;DHT22;3777;48.722;8.110;2023-02-27T03:42:09;0.10;99.90
7472;DHT22;3777;48.722;8.110;2023-02-27T03:44:47;0.00;99.90
7472;DHT22;3777;48.722;8.110;2023-02-27T03:47:16;0.00;99.90
7472;DHT22;3777;48.722;8.110;2023-02-27T03:49:43;-0.10;99.90
7472;DHT22;3777;48.722;8.110;2023-02-27T03:52:10;-0.10;99.90
7472;DHT22;3777;48.722;8.110;2023-02-27T03:54:42;-0.10;99.90
7472;DHT22;3777;48.722;8.110;2023-02-27T03:57:11;-0.10;99.90
7472;DHT22;3777;48.722;8.110;2023-02-27T03:59:40;0.00;99.90
7472;DHT22;3777;48.722;8.110;2023-02-27T04:02:07;-0.10;99.90
7472;DHT22;3777;48.722;8.110;2023-02-27T04:04:34;-0.10;99.90
7472;DHT22;3777;48.722;8.110;2023-02-27T04:07:05;-0.10;99.90
7472;DHT22;3777;48.722;8.110;2023-02-27T04:10:08;-0.10;99.90
7472;DHT22;3777;48.722;8.110;2023-02-27T04:13:00;-0.10;99.90
7472;DHT22;3777;48.722;8.110;2023-02-27T04:15:36;-0.20;99.90
7472;DHT22;3777;48.722;8.110;2023-02-27T04:18:15;-0.20;99.90
7472;DHT22;3777;48.722;8.110;2023-02-27T04:20:46;-0.30;99.90
7472;DHT22;3777;48.722;8.110;2023-02-27T04:23:18;-0.30;99.90
7472;DHT22;3777;48.722;8.110;2023-02-27T04:25:54;-0.30;99.90
7472;DHT22;3777;48.722;8.110;2023-02-27T04:28:28;-0.30;99.90
7472;DHT22;3777;48.722;8.110;2023-02-27T04:31:04;-0.30;99.90
7472;DHT22;3777;48.722;8.110;2023-02-27T04:33:41;-0.30;99.90
7472;DHT22;3777;48.722;8.110;2023-02-27T04:36:15;-0.30;99.90
7472;DHT22;3777;48.722;8.110;2023-02-27T04:38:47;-0.30;99.90
7472;DHT22;3777;48.722;8.110;2023-02-27T04:41:19;-0.30;99.90
7472;DHT22;3777;48.722;8.110;2023-02-27T04:43:49;-0.30;99.90
7472;DHT22;3777;48.722;8.110;2023-02-27T04:46:20;-0.30;99.90
7472;DHT22;3777;48.722;8.110;2023-02-27T04:48:53;-0.30;99.90
7472;DHT22;3777;48.722;8.110;2023-02-27T04:51:24;-0.30;99.90
7472;DHT22;3777;48.722;8.110;2023-02-27T04:53:55;-0.30;99.90
7472;DHT22;3777;48.722;8.110;2023-02-27T04:56:27;-0.40;99.90
7472;DHT22;3777;48.722;8.110;2023-02-27T04:59:00;-0.30;99.90
7472;DHT22;3777;48.722;8.110;2023-02-27T05:01:33;-0.40;99.90
7472;DHT22;3777;48.722;8.110;2023-02-27T05:04:02;-0.40;99.90
7472;DHT22;3777;48.722;8.110;2023-02-27T05:06:34;-0.40;99.90
7472;DHT22;3777;48.722;8.110;2023-02-27T05:09:09;-0.40;99.90
7472;DHT22;3777;48.722;8.110;2023-02-27T05:11:42;-0.40;99.90
7472;DHT22;3777;48.722;8.110;2023-02-27T05:14:16;-0.40;99.90
7472;DHT22;3777;48.722;8.110;2023-02-27T05:16:48;-0.50;99.90
7472;DHT22;3777;48.722;8.110;2023-02-27T05:19:17;-0.40;99.90
7472;DHT22;3777;48.722;8.110;2023-02-27T05:21:48;-0.40;99.90
7472;DHT22;3777;48.722;8.110;2023-02-27T05:24:23;-0.40;99.90
7472;DHT22;3777;48.722;8.110;2023-02-27T05:27:11;-0.40;99.90
7472;DHT22;3777;48.722;8.110;2023-02-27T05:29:46;-0.50;99.90
7472;DHT22;3777;48.722;8.110;2023-02-27T05:32:20;-0.40;99.90
7472;DHT22;3777;48.722;8.110;2023-02-27T05:34:51;-0.40;99.90
7472;DHT22;3777;48.722;8.110;2023-02-27T05:37:22;-0.40;99.90
7472;DHT22;3777;48.722;8.110;2023-02-27T05:39:51;-0.50;99.90
7472;DHT22;3777;48.722;8.110;2023-02-27T05:42:23;-0.40;99.90
7472;DHT22;3777;48.722;8.110;2023-02-27T05:44:58;-0.40;99.90
7472;DHT22;3777;48.722;8.110;2023-02-27T05:47:28;-0.40;99.90
7472;DHT22;3777;48.722;8.110;2023-02-27T05:50:00;-0.40;99.90
7472;DHT22;3777;48.722;8.110;2023-02-27T05:52:29;-0.40;99.90
7472;DHT22;3777;48.722;8.110;2023-02-27T05:55:00;-0.40;99.90
7472;DHT22;3777;48.722;8.110;2023-02-27T05:57:29;-0.50;99.90
7472;DHT22;3777;48.722;8.110;2023-02-27T06:00:03;-0.50;99.90
7472;DHT22;3777;48.722;8.110;2023-02-27T06:02:32;-0.50;99.90
7472;DHT22;3777;48.722;8.110;2023-02-27T06:04:59;-0.50;99.90
7472;DHT22;3777;48.722;8.110;2023-02-27T06:07:29;-0.50;99.90
7472;DHT22;3777;48.722;8.110;2023-02-27T06:09:57;-0.50;99.90
7472;DHT22;3777;48.722;8.110;2023-02-27T06:12:24;-0.40;99.90
7472;DHT22;3777;48.722;8.110;2023-02-27T06:14:51;-0.40;99.90
7472;DHT22;3777;48.722;8.110;2023-02-27T06:17:19;-0.50;99.90
7472;DHT22;3777;48.722;8.110;2023-02-27T06:19:46;-0.50;99.90
7472;DHT22;3777;48.722;8.110;2023-02-27T06:22:13;-0.40;99.90
7472;DHT22;3777;48.722;8.110;2023-02-27T06:24:40;-0.40;99.90
7472;DHT22;3777;48.722;8.110;2023-02-27T06:27:07;-0.40;99.90
7472;DHT22;3777;48.722;8.110;2023-02-27T06:29:34;-0.40;99.90
7472;DHT22;3777;48.722;8.110;2023-02-27T06:32:01;-0.40;99.90
7472;DHT22;3777;48.722;8.110;2023-02-27T06:34:29;-0.40;99.90
7472;DHT22;3777;48.722;8.110;2023-02-27T06:36:56;-0.40;99.90
7472;DHT22;3777;48.722;8.110;2023-02-27T06:39:23;-0.40;99.90
7472;DHT22;3777;48.722;8.110;2023-02-27T06:41:50;-0.30;99.90
7472;DHT22;3777;48.722;8.110;2023-02-27T06:44:17;-0.40;99.90
7472;DHT22;3777;48.722;8.110;2023-02-27T06:46:44;-0.40;99.90
7472;DHT22;3777;48.722;8.110;2023-02-27T06:49:11;-0.40;99.90
7472;DHT22;3777;48.722;8.110;2023-02-27T06:51:39;-0.30;99.90
7472;DHT22;3777;48.722;8.110;2023-02-27T06:54:07;-0.30;99.90
7472;DHT22;3777;48.722;8.110;2023-02-27T06:56:34;-0.30;99.90
7472;DHT22;3777;48.722;8.110;2023-02-27T06:59:01;-0.30;99.90
7472;DHT22;3777;48.722;8.110;2023-02-27T07:01:28;-0.30;99.90
7472;DHT22;3777;48.722;8.110;2023-02-27T07:03:55;-0.20;99.90
7472;DHT22;3777;48.722;8.110;2023-02-27T07:06:22;-0.10;99.90
7472;DHT22;3777;48.722;8.110;2023-02-27T07:08:50;-0.10;99.90
7472;DHT22;3777;48.722;8.110;2023-02-27T07:11:17;0.00;99.90
7472;DHT22;3777;48.722;8.110;2023-02-27T07:13:44;0.10;99.90
7472;DHT22;3777;48.722;8.110;2023-02-27T07:16:11;0.20;99.90
7472;DHT22;3777;48.722;8.110;2023-02-27T07:18:38;0.20;99.90
7472;DHT22;3777;48.722;8.110;2023-02-27T07:21:06;0.30;99.90
7472;DHT22;3777;48.722;8.110;2023-02-27T07:23:33;0.30;99.90
7472;DHT22;3777;48.722;8.110;2023-02-27T07:26:01;0.40;99.90
7472;DHT22;3777;48.722;8.110;2023-02-27T07:28:28;0.50;99.90
7472;DHT22;3777;48.722;8.110;2023-02-27T07:30:55;0.60;99.90
7472;DHT22;3777;48.722;8.110;2023-02-27T07:33:22;0.70;99.90
7472;DHT22;3777;48.722;8.110;2023-02-27T07:35:49;0.70;99.90
7472;DHT22;3777;48.722;8.110;2023-02-27T07:38:16;0.80;99.90
7472;DHT22;3777;48.722;8.110;2023-02-27T07:40:43;0.90;99.90
7472;DHT22;3777;48.722;8.110;2023-02-27T07:43:12;1.00;99.90
7472;DHT22;3777;48.722;8.110;2023-02-27T07:45:39;1.20;99.90
7472;DHT22;3777;48.722;8.110;2023-02-27T07:48:07;1.30;99.90
7472;DHT22;3777;48.722;8.110;2023-02-27T07:50:34;1.40;99.90
7472;DHT22;3777;48.722;8.110;2023-02-27T07:53:01;1.50;99.90
7472;DHT22;3777;48.722;8.110;2023-02-27T07:55:28;1.50;99.90
7472;DHT22;3777;48.722;8.110;2023-02-27T07:57:55;1.70;99.90
7472;DHT22;3777;48.722;8.110;2023-02-27T08:00:23;1.90;99.90
7472;DHT22;3777;48.722;8.110;2023-02-27T08:02:50;2.00;99.90
7472;DHT22;3777;48.722;8.110;2023-02-27T08:05:17;2.20;99.90
7472;DHT22;3777;48.722;8.110;2023-02-27T08:07:44;2.20;99.90
7472;DHT22;3777;48.722;8.110;2023-02-27T08:10:11;2.30;99.90
7472;DHT22;3777;48.722;8.110;2023-02-27T08:12:40;2.40;99.90
7472;DHT22;3777;48.722;8.110;2023-02-27T08:15:09;2.50;99.90
7472;DHT22;3777;48.722;8.110;2023-02-27T08:17:38;2.60;99.90
7472;DHT22;3777;48.722;8.110;2023-02-27T08:20:06;2.70;99.90
7472;DHT22;3777;48.722;8.110;2023-02-27T08:22:35;2.70;99.90
7472;DHT22;3777;48.722;8.110;2023-02-27T08:25:03;2.80;99.90
7472;DHT22;3777;48.722;8.110;2023-02-27T08:27:32;2.80;99.90
7472;DHT22;3777;48.722;8.110;2023-02-27T08:29:59;2.80;99.90
7472;DHT22;3777;48.722;8.110;2023-02-27T08:32:26;3.00;99.90
7472;DHT22;3777;48.722;8.110;2023-02-27T08:34:55;3.00;99.90
7472;DHT22;3777;48.722;8.110;2023-02-27T08:37:22;3.10;99.90
7472;DHT22;3777;48.722;8.110;2023-02-27T08:39:49;3.10;99.90
7472;DHT22;3777;48.722;8.110;2023-02-27T08:42:16;3.10;99.90
7472;DHT22;3777;48.722;8.110;2023-02-27T08:44:43;3.00;99.90
7472;DHT22;3777;48.722;8.110;2023-02-27T08:47:09;3.00;99.90
7472;DHT22;3777;48.722;8.110;2023-02-27T08:49:36;2.80;99.90
7472;DHT22;3777;48.722;8.110;2023-02-27T08:52:05;2.80;99.90
7472;DHT22;3777;48.722;8.110;2023-02-27T08:54:34;3.10;99.90
7472;DHT22;3777;48.722;8.110;2023-02-27T08:57:01;3.30;99.90
7472;DHT22;3777;48.722;8.110;2023-02-27T08:59:28;3.40;99.90
7472;DHT22;3777;48.722;8.110;2023-02-27T09:01:55;3.70;99.90
7472;DHT22;3777;48.722;8.110;2023-02-27T09:04:22;3.60;99.90
7472;DHT22;3777;48.722;8.110;2023-02-27T09:06:49;3.60;99.90
7472;DHT22;3777;48.722;8.110;2023-02-27T09:09:19;3.60;99.90
7472;DHT22;3777;48.722;8.110;2023-02-27T09:11:48;3.70;99.90
7472;DHT22;3777;48.722;8.110;2023-02-27T09:14:15;3.90;99.90
7472;DHT22;3777;48.722;8.110;2023-02-27T09:16:42;4.10;99.90
7472;DHT22;3777;48.722;8.110;2023-02-27T09:19:09;4.20;99.90
7472;DHT22;3777;48.722;8.110;2023-02-27T09:21:36;4.30;99.90
7472;DHT22;3777;48.722;8.110;2023-02-27T09:24:04;4.30;99.90
7472;DHT22;3777;48.722;8.110;2023-02-27T09:26:32;4.50;99.90
7472;DHT22;3777;48.722;8.110;2023-02-27T09:28:59;4.40;99.90
7472;DHT22;3777;48.722;8.110;2023-02-27T09:31:26;4.50;99.90
7472;DHT22;3777;48.722;8.110;2023-02-27T09:33:54;4.50;99.90
7472;DHT22;3777;48.722;8.110;2023-02-27T09:36:22;4.60;99.90
7472;DHT22;3777;48.722;8.110;2023-02-27T09:38:49;4.70;99.90
7472;DHT22;3777;48.722;8.110;2023-02-27T09:41:39;4.70;99.90
7472;DHT22;3777;48.722;8.110;2023-02-27T09:44:16;4.60;99.90
7472;DHT22;3777;48.722;8.110;2023-02-27T09:46:47;4.80;99.90
7472;DHT22;3777;48.722;8.110;2023-02-27T09:49:17;5.20;99.90
7472;DHT22;3777;48.722;8.110;2023-02-27T09:51:46;5.40;99.90
7472;DHT22;3777;48.722;8.110;2023-02-27T09:54:13;5.70;99.90
7472;DHT22;3777;48.722;8.110;2023-02-27T09:56:47;6.10;99.50
7472;DHT22;3777;48.722;8.110;2023-02-27T09:59:33;6.20;99.00
7472;DHT22;3777;48.722;8.110;2023-02-27T10:02:09;6.80;97.30
7472;DHT22;3777;48.722;8.110;2023-02-27T10:04:40;7.20;95.40
7472;DHT22;3777;48.722;8.110;2023-02-27T10:07:14;7.00;94.30
7472;DHT22;3777;48.722;8.110;2023-02-27T10:09:51;7.30;94.40
7472;DHT22;3777;48.722;8.110;2023-02-27T10:12:33;7.50;93.70
7472;DHT22;3777;48.722;8.110;2023-02-27T10:15:08;7.30;92.40
7472;DHT22;3777;48.722;8.110;2023-02-27T10:17:38;7.10;92.90
7472;DHT22;3777;48.722;8.110;2023-02-27T10:20:09;7.00;92.50
7472;DHT22;3777;48.722;8.110;2023-02-27T10:22:42;6.90;92.20
7472;DHT22;3777;48.722;8.110;2023-02-27T10:25:12;6.90;92.60
7472;DHT22;3777;48.722;8.110;2023-02-27T10:27:44;7.10;91.70
7472;DHT22;3777;48.722;8.110;2023-02-27T10:30:22;7.20;91.20
7472;DHT22;3777;48.722;8.110;2023-02-27T10:32:54;7.40;90.40
7472;DHT22;3777;48.722;8.110;2023-02-27T10:35:27;7.50;89.60
7472;DHT22;3777;48.722;8.110;2023-02-27T10:37:58;7.50;88.10
7472;DHT22;3777;48.722;8.110;2023-02-27T10:40:28;7.70;87.40
7472;DHT22;3777;48.722;8.110;2023-02-27T10:42:59;7.60;84.80
7472;DHT22;3777;48.722;8.110;2023-02-27T10:45:27;7.80;86.20
7472;DHT22;3777;48.722;8.110;2023-02-27T10:47:55;8.20;86.40
7472;DHT22;3777;48.722;8.110;2023-02-27T10:50:25;8.40;82.00
7472;DHT22;3777;48.722;8.110;2023-02-27T10:52:54;8.70;80.50
7472;DHT22;3777;48.722;8.110;2023-02-27T10:55:25;9.20;80.00
7472;DHT22;3777;48.722;8.110;2023-02-27T10:57:53;9.00;79.40
7472;DHT22;3777;48.722;8.110;2023-02-27T11:00:37;9.60;77.10
7472;DHT22;3777;48.722;8.110;2023-02-27T11:03:06;10.10;73.20
7472;DHT22;3777;48.722;8.110;2023-02-27T11:05:52;10.40;69.70
7472;DHT22;3777;48.722;8.110;2023-02-27T11:08:22;10.20;68.80
7472;DHT22;3777;48.722;8.110;2023-02-27T11:10:59;9.80;67.40
7472;DHT22;3777;48.722;8.110;2023-02-27T11:13:27;10.10;67.30
7472;DHT22;3777;48.722;8.110;2023-02-27T11:16:11;10.30;64.40
7472;DHT22;3777;48.722;8.110;2023-02-27T11:18:39;10.10;63.40
7472;DHT22;3777;48.722;8.110;2023-02-27T11:21:17;9.70;65.30
7472;DHT22;3777;48.722;8.110;2023-02-27T11:23:56;9.40;63.60
7472;DHT22;3777;48.722;8.110;2023-02-27T11:26:27;9.40;64.00
7472;DHT22;3777;48.722;8.110;2023-02-27T11:29:12;9.40;61.80
7472;DHT22;3777;48.722;8.110;2023-02-27T11:31:52;9.40;65.70
7472;DHT22;3777;48.722;8.110;2023-02-27T11:34:30;9.00;62.90
7472;DHT22;3777;48.722;8.110;2023-02-27T11:37:02;8.90;62.90
7472;DHT22;3777;48.722;8.110;2023-02-27T11:39:33;8.80;65.90
7472;DHT22;3777;48.722;8.110;2023-02-27T11:42:07;8.90;66.30
7472;DHT22;3777;48.722;8.110;2023-02-27T11:44:36;8.40;67.80
7472;DHT22;3777;48.722;8.110;2023-02-27T11:47:14;7.90;69.60
7472;DHT22;3777;48.722;8.110;2023-02-27T11:50:08;7.50;73.10
7472;DHT22;3777;48.722;8.110;2023-02-27T11:52:43;7.10;73.00
7472;DHT22;3777;48.722;8.110;2023-02-27T11:55:14;6.90;72.20
7472;DHT22;3777;48.722;8.110;2023-02-27T11:57:47;6.50;74.70
7472;DHT22;3777;48.722;8.110;2023-02-27T12:00:18;6.40;79.00
7472;DHT22;3777;48.722;8.110;2023-02-27T12:02:54;6.30;78.30
7472;DHT22;3777;48.722;8.110;2023-02-27T12:05:25;6.30;78.20
7472;DHT22;3777;48.722;8.110;2023-02-27T12:07:55;6.40;77.80
7472;DHT22;3777;48.722;8.110;2023-02-27T12:10:26;6.30;78.70
7472;DHT22;3777;48.722;8.110;2023-02-27T12:12:57;6.30;80.70
7472;DHT22;3777;48.722;8.110;2023-02-27T12:15:29;6.30;82.60
7472;DHT22;3777;48.722;8.110;2023-02-27T12:18:06;6.20;77.90
7472;DHT22;3777;48.722;8.110;2023-02-27T12:20:37;6.30;81.70
7472;DHT22;3777;48.722;8.110;2023-02-27T12:23:15;6.30;82.30
7472;DHT22;3777;48.722;8.110;2023-02-27T12:25:47;6.20;82.10
7472;DHT22;3777;48.722;8.110;2023-02-27T12:28:31;6.20;82.10
7472;DHT22;3777;48.722;8.110;2023-02-27T12:31:13;6.20;82.20
7472;DHT22;3777;48.722;8.110;2023-02-27T12:33:49;6.20;80.60
7472;DHT22;3777;48.722;8.110;2023-02-27T12:36:20;6.20;83.30
7472;DHT22;3777;48.722;8.110;2023-02-27T12:38:48;6.30;84.90
7472;DHT22;3777;48.722;8.110;2023-02-27T12:41:32;6.40;84.60
7472;DHT22;3777;48.722;8.110;2023-02-27T12:44:18;6.20;85.60
7472;DHT22;3777;48.722;8.110;2023-02-27T12:46:51;6.30;82.40
7472;DHT22;3777;48.722;8.110;2023-02-27T12:49:37;6.30;83.60
7472;DHT22;3777;48.722;8.110;2023-02-27T12:52:17;6.30;86.00
7472;DHT22;3777;48.722;8.110;2023-02-27T12:54:54;6.20;84.30
7472;DHT22;3777;48.722;8.110;2023-02-27T12:57:28;6.30;85.90
7472;DHT22;3777;48.722;8.110;2023-02-27T13:00:09;6.30;84.20
7472;DHT22;3777;48.722;8.110;2023-02-27T13:02:49;6.10;85.30
7472;DHT22;3777;48.722;8.110;2023-02-27T13:05:33;6.10;83.50
7472;DHT22;3777;48.722;8.110;2023-02-27T13:08:09;6.20;85.00
7472;DHT22;3777;48.722;8.110;2023-02-27T13:10:44;6.30;82.80
7472;DHT22;3777;48.722;8.110;2023-02-27T13:13:16;6.10;84.20
7472;DHT22;3777;48.722;8.110;2023-02-27T13:15:48;5.90;85.00
7472;DHT22;3777;48.722;8.110;2023-02-27T13:18:27;5.70;83.30
7472;DHT22;3777;48.722;8.110;2023-02-27T13:21:01;5.60;85.10
7472;DHT22;3777;48.722;8.110;2023-02-27T13:23:36;5.80;84.70
7472;DHT22;3777;48.722;8.110;2023-02-27T13:26:15;5.90;83.50
7472;DHT22;3777;48.722;8.110;2023-02-27T13:28:44;5.80;82.90
7472;DHT22;3777;48.722;8.110;2023-02-27T13:31:17;5.70;82.00
7472;DHT22;3777;48.722;8.110;2023-02-27T13:33:52;5.70;82.40
7472;DHT22;3777;48.722;8.110;2023-02-27T13:36:25;5.70;84.00
7472;DHT22;3777;48.722;8.110;2023-02-27T13:38:54;5.80;81.90
7472;DHT22;3777;48.722;8.110;2023-02-27T13:41:37;5.90;83.60
7472;DHT22;3777;48.722;8.110;2023-02-27T13:44:37;5.90;83.70
7472;DHT22;3777;48.722;8.110;2023-02-27T13:47:39;5.90;82.30
7472;DHT22;3777;48.722;8.110;2023-02-27T13:53:23;6.10;82.10
7472;DHT22;3777;48.722;8.110;2023-02-27T13:55:57;6.20;81.30
7472;DHT22;3777;48.722;8.110;2023-02-27T13:58:25;6.20;82.10
7472;DHT22;3777;48.722;8.110;2023-02-27T14:00:55;6.20;83.10
7472;DHT22;3777;48.722;8.110;2023-02-27T14:03:25;6.00;79.80
7472;DHT22;3777;48.722;8.110;2023-02-27T14:05:56;6.10;80.70
7472;DHT22;3777;48.722;8.110;2023-02-27T14:08:27;5.90;80.80
7472;DHT22;3777;48.722;8.110;2023-02-27T14:10:58;6.00;81.70
7472;DHT22;3777;48.722;8.110;2023-02-27T14:14:02;6.00;80.20
7472;DHT22;3777;48.722;8.110;2023-02-27T14:16:54;6.10;81.20
7472;DHT22;3777;48.722;8.110;2023-02-27T14:25:37;5.80;80.20
7472;DHT22;3777;48.722;8.110;2023-02-27T14:28:13;5.70;81.10
7472;DHT22;3777;48.722;8.110;2023-02-27T14:30:48;5.60;80.60
7472;DHT22;3777;48.722;8.110;2023-02-27T14:33:21;5.60;82.10
7472;DHT22;3777;48.722;8.110;2023-02-27T14:35:55;5.50;81.00
7472;DHT22;3777;48.722;8.110;2023-02-27T14:38:25;5.50;81.40
7472;DHT22;3777;48.722;8.110;2023-02-27T14:41:06;5.50;81.00
7472;DHT22;3777;48.722;8.110;2023-02-27T14:43:38;5.50;80.90
7472;DHT22;3777;48.722;8.110;2023-02-27T14:46:19;5.50;81.10
7472;DHT22;3777;48.722;8.110;2023-02-27T14:48:52;5.60;81.30
7472;DHT22;3777;48.722;8.110;2023-02-27T14:51:20;5.60;80.60
7472;DHT22;3777;48.722;8.110;2023-02-27T14:53:59;5.70;81.20
7472;DHT22;3777;48.722;8.110;2023-02-27T14:56:27;5.60;80.50
7472;DHT22;3777;48.722;8.110;2023-02-27T14:58:54;5.70;81.30
7472;DHT22;3777;48.722;8.110;2023-02-27T15:01:25;5.70;81.90
7472;DHT22;3777;48.722;8.110;2023-02-27T15:03:55;5.70;80.80
7472;DHT22;3777;48.722;8.110;2023-02-27T15:06:30;5.60;80.80
7472;DHT22;3777;48.722;8.110;2023-02-27T15:09:00;5.50;80.30
7472;DHT22;3777;48.722;8.110;2023-02-27T15:11:29;5.40;80.50
7472;DHT22;3777;48.722;8.110;2023-02-27T15:13:58;5.50;80.70
7472;DHT22;3777;48.722;8.110;2023-02-27T15:16:34;5.40;79.80
7472;DHT22;3777;48.722;8.110;2023-02-27T15:19:13;5.30;80.00
7472;DHT22;3777;48.722;8.110;2023-02-27T15:21:44;5.30;79.20
7472;DHT22;3777;48.722;8.110;2023-02-27T15:24:24;5.40;79.80
7472;DHT22;3777;48.722;8.110;2023-02-27T15:26:55;5.40;80.00
7472;DHT22;3777;48.722;8.110;2023-02-27T15:29:25;5.40;81.40
7472;DHT22;3777;48.722;8.110;2023-02-27T15:31:56;5.30;81.30
7472;DHT22;3777;48.722;8.110;2023-02-27T15:34:23;5.40;80.00
7472;DHT22;3777;48.722;8.110;2023-02-27T15:36:52;5.30;79.80
7472;DHT22;3777;48.722;8.110;2023-02-27T15:39:21;5.30;79.20
7472;DHT22;3777;48.722;8.110;2023-02-27T15:41:50;5.40;79.60
7472;DHT22;3777;48.722;8.110;2023-02-27T15:44:23;5.30;79.20
7472;DHT22;3777;48.722;8.110;2023-02-27T15:46:50;5.00;78.80
7472;DHT22;3777;48.722;8.110;2023-02-27T15:49:18;4.90;79.00
7472;DHT22;3777;48.722;8.110;2023-02-27T15:51:47;4.90;79.50
7472;DHT22;3777;48.722;8.110;2023-02-27T15:54:22;5.00;80.40
7472;DHT22;3777;48.722;8.110;2023-02-27T15:56:50;4.90;78.80
7472;DHT22;3777;48.722;8.110;2023-02-27T15:59:19;4.90;78.70
7472;DHT22;3777;48.722;8.110;2023-02-27T16:01:47;4.90;78.90
7472;DHT22;3777;48.722;8.110;2023-02-27T16:04:22;4.90;79.60
7472;DHT22;3777;48.722;8.110;2023-02-27T16:06:56;4.90;79.00
7472;DHT22;3777;48.722;8.110;2023-02-27T16:09:27;4.90;79.60
7472;DHT22;3777;48.722;8.110;2023-02-27T16:12:22;4.90;79.40
7472;DHT22;3777;48.722;8.110;2023-02-27T16:14:52;4.90;79.70
7472;DHT22;3777;48.722;8.110;2023-02-27T16:17:34;4.90;80.80
7472;DHT22;3777;48.722;8.110;2023-02-27T16:20:35;5.00;79.30
7472;DHT22;3777;48.722;8.110;2023-02-27T16:23:04;4.90;79.20
7472;DHT22;3777;48.722;8.110;2023-02-27T16:25:31;4.80;80.10
7472;DHT22;3777;48.722;8.110;2023-02-27T16:27:58;4.70;79.30
7472;DHT22;3777;48.722;8.110;2023-02-27T16:30:27;4.70;80.40
7472;DHT22;3777;48.722;8.110;2023-02-27T16:32:59;4.60;78.90
7472;DHT22;3777;48.722;8.110;2023-02-27T16:35:27;4.50;78.60
7472;DHT22;3777;48.722;8.110;2023-02-27T16:37:59;4.60;78.90
7472;DHT22;3777;48.722;8.110;2023-02-27T16:40:27;4.50;78.10
7472;DHT22;3777;48.722;8.110;2023-02-27T16:42:55;4.60;79.10
7472;DHT22;3777;48.722;8.110;2023-02-27T16:45:24;4.50;79.20
7472;DHT22;3777;48.722;8.110;2023-02-27T16:47:54;4.50;78.60
7472;DHT22;3777;48.722;8.110;2023-02-27T16:50:23;4.50;79.00
7472;DHT22;3777;48.722;8.110;2023-02-27T16:52:52;4.60;79.40
7472;DHT22;3777;48.722;8.110;2023-02-27T16:55:19;4.50;77.60
7472;DHT22;3777;48.722;8.110;2023-02-27T16:57:46;4.50;79.00
7472;DHT22;3777;48.722;8.110;2023-02-27T17:00:15;4.40;77.90
7472;DHT22;3777;48.722;8.110;2023-02-27T17:02:42;4.40;78.50
7472;DHT22;3777;48.722;8.110;2023-02-27T17:05:11;4.40;79.40